createdAt,value
2017-03-11T00:00:29.207Z,22.6
2017-03-11T00:01:37.297Z,22.5
2017-03-11T00:02:45.386Z,22.4
2017-03-11T00:03:53.472Z,22.5
2017-03-11T00:05:01.563Z,22.4
2017-03-11T00:06:09.650Z,22.4
2017-03-11T00:07:17.992Z,22.4
2017-03-11T00:08:25.831Z,22.5
2017-03-11T00:09:33.916Z,22.3
2017-03-11T00:10:42.005Z,22.4
2017-03-11T00:11:50.089Z,22.4
2017-03-11T00:12:58.184Z,22.3
2017-03-11T00:14:06.276Z,22.4
2017-03-11T00:15:14.360Z,22.4
2017-03-11T00:16:22.451Z,22.4
2017-03-11T00:17:30.543Z,22.3
2017-03-11T00:18:38.631Z,22.4
2017-03-11T00:19:46.723Z,22.4
2017-03-11T00:20:54.816Z,22.3
2017-03-11T00:22:02.909Z,22.4
2017-03-11T00:23:10.991Z,22.4
2017-03-11T00:24:19.084Z,22.4
2017-03-11T00:25:27.169Z,22.4
2017-03-11T00:26:35.257Z,22.4
2017-03-11T00:27:43.344Z,22.4
2017-03-11T00:28:51.433Z,22.4
2017-03-11T00:29:59.519Z,22.3
2017-03-11T00:31:07.605Z,22.4
2017-03-11T00:32:15.696Z,22.4
2017-03-11T00:33:23.784Z,22.4
2017-03-11T00:34:31.872Z,22.3
2017-03-11T00:35:39.959Z,22.4
2017-03-11T00:36:48.048Z,22.4
2017-03-11T00:37:56.166Z,22.4
2017-03-11T00:39:04.222Z,22.4
2017-03-11T00:40:12.314Z,22.4
2017-03-11T00:41:20.399Z,22.4
2017-03-11T00:42:28.494Z,22.4
2017-03-11T00:43:36.589Z,22.4
2017-03-11T00:44:44.680Z,22.4
2017-03-11T00:45:52.765Z,22.4
2017-03-11T00:47:00.848Z,22.4
2017-03-11T00:48:08.941Z,22.4
2017-03-11T00:49:17.033Z,22.3
2017-03-11T00:50:25.124Z,22.4
2017-03-11T00:51:33.213Z,22.4
2017-03-11T00:52:41.297Z,22.4
2017-03-11T00:53:49.388Z,22.3
2017-03-11T00:54:57.479Z,22.3
2017-03-11T00:56:05.571Z,22.4
2017-03-11T00:57:13.662Z,22.4
2017-03-11T00:58:21.749Z,22.3
2017-03-11T00:59:29.842Z,22.3
2017-03-11T01:00:37.929Z,22.3
2017-03-11T01:01:46.020Z,22.3
2017-03-11T01:02:54.114Z,22.4
2017-03-11T01:04:02.199Z,22.3
2017-03-11T01:05:10.288Z,22.3
2017-03-11T01:06:18.375Z,22.3
2017-03-11T01:07:26.461Z,22.3
2017-03-11T01:08:34.548Z,22.3
2017-03-11T01:09:42.633Z,22.4
2017-03-11T01:10:50.720Z,22.3
2017-03-11T01:11:58.808Z,22.3
2017-03-11T01:13:06.898Z,22.3
2017-03-11T01:14:14.985Z,22.3
2017-03-11T01:15:23.078Z,22.3
2017-03-11T01:16:31.168Z,22.4
2017-03-11T01:17:39.253Z,22.2
2017-03-11T01:18:47.337Z,22.3
2017-03-11T01:19:55.428Z,22.2
2017-03-11T01:21:03.519Z,22.3
2017-03-11T01:22:11.604Z,22.2
2017-03-11T01:23:19.694Z,22.3
2017-03-11T01:24:27.781Z,22.3
2017-03-11T01:25:35.869Z,22.2
2017-03-11T01:26:43.954Z,22.3
2017-03-11T01:27:52.049Z,22.3
2017-03-11T01:29:00.137Z,22.3
2017-03-11T01:30:08.236Z,22.3
2017-03-11T01:31:16.317Z,22.3
2017-03-11T01:32:24.404Z,22.3
2017-03-11T01:33:32.491Z,22.2
2017-03-11T01:34:40.649Z,22.3
2017-03-11T01:35:48.674Z,22.2
2017-03-11T01:36:56.771Z,22.2
2017-03-11T01:38:04.849Z,22.3
2017-03-11T01:39:12.952Z,22.2
2017-03-11T01:40:21.045Z,22.2
2017-03-11T01:41:29.123Z,22.2
2017-03-11T01:42:37.210Z,22.2
2017-03-11T01:43:45.303Z,22.2
2017-03-11T01:44:53.389Z,22.2
2017-03-11T01:46:01.476Z,22.2
2017-03-11T01:47:09.567Z,22.2
2017-03-11T01:48:17.655Z,22.2
2017-03-11T01:49:25.745Z,22.2
2017-03-11T01:50:33.831Z,22.2
2017-03-11T01:51:41.937Z,22.1
2017-03-11T01:52:50.007Z,22.1
2017-03-11T01:53:58.088Z,22.2
2017-03-11T01:55:06.182Z,22.2
2017-03-11T01:56:14.271Z,22.2
2017-03-11T01:57:22.351Z,22.2
2017-03-11T01:58:30.445Z,22.1
2017-03-11T01:59:38.538Z,22.2
2017-03-11T02:00:46.627Z,22.2
2017-03-11T02:01:54.712Z,22.2
2017-03-11T02:03:02.803Z,22.2
2017-03-11T02:04:10.887Z,22.1
2017-03-11T02:05:18.983Z,22.1
2017-03-11T02:06:27.072Z,22.0
2017-03-11T02:07:35.159Z,22.1
2017-03-11T02:08:43.285Z,22.1
2017-03-11T02:09:51.335Z,22.1
2017-03-11T02:10:59.425Z,22.1
2017-03-11T02:12:07.520Z,22.1
2017-03-11T02:13:15.610Z,22.0
2017-03-11T02:14:23.697Z,22.0
2017-03-11T02:15:31.785Z,22.1
2017-03-11T02:16:39.873Z,22.0
2017-03-11T02:17:47.960Z,22.0
2017-03-11T02:18:56.054Z,22.0
2017-03-11T02:20:04.138Z,22.0
2017-03-11T02:21:12.225Z,22.1
2017-03-11T02:22:20.321Z,22.0
2017-03-11T02:23:28.407Z,21.9
2017-03-11T02:24:36.496Z,22.0
2017-03-11T02:25:44.579Z,22.0
2017-03-11T02:26:52.675Z,22.0
2017-03-11T02:28:00.767Z,21.9
2017-03-11T02:29:08.852Z,21.9
2017-03-11T02:30:16.937Z,22.0
2017-03-11T02:31:25.030Z,21.9
2017-03-11T02:32:33.115Z,21.9
2017-03-11T02:33:41.200Z,21.9
2017-03-11T02:34:49.291Z,21.9
2017-03-11T02:35:57.383Z,21.9
2017-03-11T02:37:05.468Z,21.9
2017-03-11T02:38:13.559Z,21.9
2017-03-11T02:39:21.650Z,21.9
2017-03-11T02:40:29.738Z,21.9
2017-03-11T02:41:37.829Z,21.9
2017-03-11T02:42:45.916Z,21.8
2017-03-11T02:43:54.006Z,21.8
2017-03-11T02:45:02.103Z,21.8
2017-03-11T02:46:10.186Z,21.8
2017-03-11T02:47:18.271Z,21.8
2017-03-11T02:48:26.360Z,21.7
2017-03-11T02:49:34.447Z,21.7
2017-03-11T02:50:42.543Z,21.7
2017-03-11T02:51:50.627Z,21.8
2017-03-11T02:52:58.713Z,21.7
2017-03-11T02:54:06.802Z,21.7
2017-03-11T02:55:14.889Z,21.7
2017-03-11T02:56:22.972Z,21.6
2017-03-11T02:57:31.070Z,21.7
2017-03-11T02:58:39.157Z,21.7
2017-03-11T02:59:47.247Z,21.8
2017-03-11T03:00:55.332Z,21.7
2017-03-11T03:02:03.423Z,21.6
2017-03-11T03:03:11.508Z,21.6
2017-03-11T03:04:19.598Z,21.6
2017-03-11T03:05:27.688Z,21.6
2017-03-11T03:06:35.773Z,21.7
2017-03-11T03:07:43.857Z,21.7
2017-03-11T03:08:51.944Z,21.6
2017-03-11T03:10:00.038Z,21.6
2017-03-11T03:11:08.130Z,21.6
2017-03-11T03:12:16.217Z,21.6
2017-03-11T03:13:24.311Z,21.6
2017-03-11T03:14:32.397Z,21.6
2017-03-11T03:15:40.487Z,21.6
2017-03-11T03:16:48.569Z,21.6
2017-03-11T03:17:56.660Z,21.6
2017-03-11T03:19:04.755Z,21.5
2017-03-11T03:20:12.832Z,21.5
2017-03-11T03:21:20.920Z,21.5
2017-03-11T03:22:29.009Z,21.5
2017-03-11T03:23:37.095Z,21.5
2017-03-11T03:24:45.186Z,21.5
2017-03-11T03:25:53.277Z,21.5
2017-03-11T03:27:01.364Z,21.5
2017-03-11T03:28:09.457Z,21.5
2017-03-11T03:29:17.551Z,21.5
2017-03-11T03:30:25.643Z,21.4
2017-03-11T03:31:33.725Z,21.4
2017-03-11T03:32:41.816Z,21.4
2017-03-11T03:33:49.906Z,21.3
2017-03-11T03:34:57.992Z,21.3
2017-03-11T03:36:06.075Z,21.4
2017-03-11T03:37:14.168Z,21.4
2017-03-11T03:38:22.257Z,21.4
2017-03-11T03:39:30.341Z,21.4
2017-03-11T03:40:38.429Z,21.3
2017-03-11T03:41:46.526Z,21.4
2017-03-11T03:42:54.608Z,21.3
2017-03-11T03:44:02.695Z,21.3
2017-03-11T03:45:10.783Z,21.3
2017-03-11T03:46:18.877Z,21.3
2017-03-11T03:47:26.969Z,21.3
2017-03-11T03:48:35.050Z,21.3
2017-03-11T03:49:43.147Z,21.2
2017-03-11T03:50:51.229Z,21.3
2017-03-11T03:51:59.312Z,21.2
2017-03-11T03:53:07.402Z,21.1
2017-03-11T03:54:15.493Z,21.2
2017-03-11T03:55:23.578Z,21.1
2017-03-11T03:56:31.674Z,21.2
2017-03-11T03:57:39.759Z,21.2
2017-03-11T03:58:47.847Z,21.2
2017-03-11T03:59:55.928Z,21.1
2017-03-11T04:01:04.018Z,21.1
2017-03-11T04:02:12.103Z,21.1
2017-03-11T04:03:20.268Z,21.1
2017-03-11T04:04:28.277Z,21.1
2017-03-11T04:05:36.365Z,21.1
2017-03-11T04:06:44.447Z,21.0
2017-03-11T04:07:52.551Z,21.1
2017-03-11T04:09:00.631Z,21.0
2017-03-11T04:10:08.717Z,21.0
2017-03-11T04:11:16.805Z,21.1
2017-03-11T04:12:24.899Z,21.1
2017-03-11T04:13:32.989Z,20.9
2017-03-11T04:14:41.080Z,20.9
2017-03-11T04:15:49.163Z,20.9
2017-03-11T04:16:57.249Z,20.9
2017-03-11T04:18:05.335Z,20.9
2017-03-11T04:19:13.423Z,20.9
2017-03-11T04:20:21.567Z,20.9
2017-03-11T04:21:29.604Z,20.9
2017-03-11T04:22:37.689Z,20.8
2017-03-11T04:23:45.831Z,20.8
2017-03-11T04:24:53.863Z,20.9
2017-03-11T04:26:01.946Z,20.8
2017-03-11T04:27:10.038Z,20.8
2017-03-11T04:28:18.124Z,20.8
2017-03-11T04:29:26.214Z,20.7
2017-03-11T04:30:34.295Z,20.8
2017-03-11T04:31:42.389Z,20.8
2017-03-11T04:32:50.475Z,20.8
2017-03-11T04:33:58.561Z,20.7
2017-03-11T04:35:06.641Z,20.7
2017-03-11T04:36:14.732Z,20.7
2017-03-11T04:37:22.903Z,20.7
2017-03-11T04:38:30.918Z,20.7
2017-03-11T04:39:38.999Z,20.7
2017-03-11T04:40:47.089Z,20.6
2017-03-11T04:41:55.171Z,20.6
2017-03-11T04:43:03.255Z,20.6
2017-03-11T04:44:11.344Z,20.6
2017-03-11T04:45:19.432Z,20.6
2017-03-11T04:46:27.521Z,20.5
2017-03-11T04:47:35.599Z,20.6
2017-03-11T04:48:43.696Z,20.5
2017-03-11T04:49:51.805Z,20.5
2017-03-11T04:50:59.868Z,20.5
2017-03-11T04:52:07.955Z,20.5
2017-03-11T04:53:16.044Z,20.5
2017-03-11T04:54:24.126Z,20.5
2017-03-11T04:55:32.213Z,20.4
2017-03-11T04:56:40.300Z,20.4
2017-03-11T04:57:48.385Z,20.5
2017-03-11T04:58:56.474Z,20.5
2017-03-11T05:00:04.562Z,20.5
2017-03-11T05:01:12.650Z,20.5
2017-03-11T05:02:20.739Z,20.3
2017-03-11T05:03:28.824Z,20.4
2017-03-11T05:04:36.910Z,20.3
2017-03-11T05:05:45.000Z,20.4
2017-03-11T05:06:53.079Z,20.4
2017-03-11T05:08:01.168Z,20.3
2017-03-11T05:09:09.257Z,20.2
2017-03-11T05:10:17.355Z,20.2
2017-03-11T05:11:25.441Z,20.3
2017-03-11T05:12:33.526Z,20.2
2017-03-11T05:13:41.616Z,20.1
2017-03-11T05:14:49.698Z,20.3
2017-03-11T05:15:57.785Z,20.2
2017-03-11T05:17:05.871Z,20.2
2017-03-11T05:18:13.952Z,20.2
2017-03-11T05:19:22.047Z,20.2
2017-03-11T05:20:30.134Z,20.2
2017-03-11T05:21:38.227Z,20.1
2017-03-11T05:22:46.310Z,20.1
2017-03-11T05:23:54.403Z,20.1
2017-03-11T05:25:02.487Z,20.1
2017-03-11T05:26:10.585Z,20.1
2017-03-11T05:27:18.666Z,20.1
2017-03-11T05:28:26.754Z,20.1
2017-03-11T05:29:34.851Z,20.1
2017-03-11T05:30:42.930Z,20.1
2017-03-11T05:31:51.019Z,20.0
2017-03-11T05:32:59.104Z,20.0
2017-03-11T05:34:07.188Z,20.0
2017-03-11T05:35:15.287Z,20.0
2017-03-11T05:36:23.371Z,20.0
2017-03-11T05:37:31.455Z,20.0
2017-03-11T05:38:39.540Z,19.9
2017-03-11T05:39:47.630Z,19.9
2017-03-11T05:40:55.716Z,20.0
2017-03-11T05:42:03.797Z,19.9
2017-03-11T05:43:11.888Z,19.9
2017-03-11T05:44:19.977Z,19.9
2017-03-11T05:45:28.063Z,19.9
2017-03-11T05:46:36.145Z,19.9
2017-03-11T05:47:44.243Z,19.8
2017-03-11T05:48:52.324Z,19.9
2017-03-11T05:50:00.412Z,19.8
2017-03-11T05:51:08.493Z,19.8
2017-03-11T05:52:16.584Z,19.7
2017-03-11T05:53:24.679Z,19.8
2017-03-11T05:54:32.754Z,19.7
2017-03-11T05:55:40.849Z,19.7
2017-03-11T05:56:48.937Z,19.8
2017-03-11T05:57:57.022Z,19.8
2017-03-11T05:59:05.367Z,19.8
2017-03-11T06:00:13.199Z,19.7
2017-03-11T06:01:21.284Z,19.7
2017-03-11T06:02:29.366Z,19.6
2017-03-11T06:03:37.456Z,19.7
2017-03-11T06:04:45.545Z,19.7
2017-03-11T06:05:53.627Z,19.7
2017-03-11T06:07:01.711Z,19.6
2017-03-11T06:08:09.802Z,19.7
2017-03-11T06:09:17.887Z,19.7
2017-03-11T06:10:25.974Z,19.7
2017-03-11T06:11:34.060Z,19.7
2017-03-11T06:12:42.158Z,19.7
2017-03-11T06:13:50.234Z,19.7
2017-03-11T06:14:58.324Z,19.6
2017-03-11T06:16:06.413Z,19.6
2017-03-11T06:17:14.496Z,19.6
2017-03-11T06:18:22.582Z,19.6
2017-03-11T06:19:30.673Z,19.6
2017-03-11T06:20:38.759Z,19.5
2017-03-11T06:21:46.844Z,19.5
2017-03-11T06:22:54.936Z,19.5
2017-03-11T06:24:03.027Z,19.6
2017-03-11T06:25:11.107Z,19.4
2017-03-11T06:26:19.192Z,19.5
2017-03-11T06:27:27.278Z,19.6
2017-03-11T06:28:35.369Z,19.6
2017-03-11T06:29:43.465Z,19.5
2017-03-11T06:30:51.552Z,19.6
2017-03-11T06:31:59.702Z,19.5
2017-03-11T06:33:07.718Z,19.6
2017-03-11T06:34:15.807Z,19.6
2017-03-11T06:35:23.893Z,19.5
2017-03-11T06:36:31.976Z,19.6
2017-03-11T06:37:40.056Z,19.4
2017-03-11T06:38:48.146Z,19.4
2017-03-11T06:39:56.232Z,19.5
2017-03-11T06:41:04.320Z,19.5
2017-03-11T06:42:12.409Z,19.4
2017-03-11T06:43:20.722Z,19.4
2017-03-11T06:44:29.094Z,19.5
2017-03-11T06:45:36.771Z,19.4
2017-03-11T06:46:44.763Z,19.5
2017-03-11T06:47:52.847Z,19.4
2017-03-11T06:49:01.006Z,19.4
2017-03-11T06:50:09.017Z,19.5
2017-03-11T06:51:17.106Z,19.5
2017-03-11T06:52:25.192Z,19.4
2017-03-11T06:53:33.272Z,19.5
2017-03-11T06:54:41.359Z,19.5
2017-03-11T06:55:49.636Z,19.5
2017-03-11T06:56:57.528Z,19.5
2017-03-11T06:58:05.618Z,19.5
2017-03-11T06:59:13.705Z,19.6
2017-03-11T07:00:21.802Z,19.4
2017-03-11T07:01:29.882Z,19.6
2017-03-11T07:02:37.969Z,19.5
2017-03-11T07:03:46.252Z,19.6
2017-03-11T07:04:54.139Z,19.6
2017-03-11T07:06:02.316Z,19.6
2017-03-11T07:07:10.324Z,19.6
2017-03-11T07:08:19.209Z,19.5
2017-03-11T07:09:26.492Z,19.6
2017-03-11T07:10:34.582Z,19.6
2017-03-11T07:11:42.665Z,19.5
2017-03-11T07:12:50.762Z,19.6
2017-03-11T07:13:58.852Z,19.5
2017-03-11T07:15:07.068Z,19.5
2017-03-11T07:16:15.025Z,19.6
2017-03-11T07:17:23.125Z,19.5
2017-03-11T07:18:31.684Z,19.6
2017-03-11T07:19:39.478Z,19.6
2017-03-11T07:25:20.219Z,19.5
2017-03-11T07:26:27.796Z,19.6
2017-03-11T07:27:35.880Z,19.6
2017-03-11T07:28:43.965Z,19.6
2017-03-11T07:29:52.062Z,19.5
2017-03-11T07:31:00.152Z,19.5
2017-03-11T07:32:08.233Z,19.6
2017-03-11T07:33:16.323Z,19.5
2017-03-11T07:34:24.406Z,19.6
2017-03-11T07:35:32.491Z,19.6
2017-03-11T07:36:40.577Z,19.5
2017-03-11T07:37:48.665Z,19.6
2017-03-11T07:38:56.750Z,19.5
2017-03-11T07:40:04.837Z,19.6
2017-03-11T07:41:12.925Z,19.5
2017-03-11T07:42:21.009Z,19.6
2017-03-11T07:43:29.092Z,19.5
2017-03-11T07:44:37.177Z,19.6
2017-03-11T07:45:45.264Z,19.5
2017-03-11T07:46:53.632Z,19.6
2017-03-11T07:48:01.441Z,19.5
2017-03-11T07:49:09.534Z,19.6
2017-03-11T07:50:17.619Z,19.5
2017-03-11T07:51:25.704Z,19.6
2017-03-11T07:52:33.785Z,19.5
2017-03-11T07:53:41.878Z,19.5
2017-03-11T07:54:49.960Z,19.5
2017-03-11T07:55:58.047Z,19.5
2017-03-11T07:57:06.141Z,19.5
2017-03-11T07:58:14.224Z,19.5
2017-03-11T07:59:22.311Z,19.5
2017-03-11T08:00:30.390Z,19.5
2017-03-11T08:01:38.483Z,19.5
2017-03-11T08:02:46.572Z,19.6
2017-03-11T08:03:54.652Z,19.6
2017-03-11T08:05:02.742Z,19.5
2017-03-11T08:06:10.829Z,19.5
2017-03-11T08:07:18.916Z,19.6
2017-03-11T08:08:26.999Z,19.6
2017-03-11T08:09:35.086Z,19.6
2017-03-11T08:10:43.217Z,19.6
2017-03-11T08:11:51.262Z,19.6
2017-03-11T08:12:59.350Z,19.7
2017-03-11T08:14:07.435Z,19.7
2017-03-11T08:15:15.521Z,19.6
2017-03-11T08:16:23.683Z,19.7
2017-03-11T08:17:31.693Z,19.6
2017-03-11T08:18:39.776Z,19.6
2017-03-11T08:19:47.865Z,19.6
2017-03-11T08:20:55.954Z,19.7
2017-03-11T08:22:04.038Z,19.7
2017-03-11T08:23:12.129Z,19.7
2017-03-11T08:24:20.214Z,19.7
2017-03-11T08:25:28.308Z,19.8
2017-03-11T08:26:36.393Z,19.7
2017-03-11T08:27:44.479Z,19.7
2017-03-11T08:28:52.568Z,19.8
2017-03-11T08:30:00.696Z,19.8
2017-03-11T08:31:08.746Z,19.7
2017-03-11T08:32:16.839Z,19.7
2017-03-11T08:33:24.992Z,19.9
2017-03-11T08:34:33.018Z,19.8
2017-03-11T08:35:41.099Z,19.8
2017-03-11T08:36:49.188Z,19.8
2017-03-11T08:37:57.276Z,19.8
2017-03-11T08:39:05.369Z,19.9
2017-03-11T08:40:13.455Z,19.9
2017-03-11T08:41:21.547Z,19.9
2017-03-11T08:42:29.630Z,20.0
2017-03-11T08:43:37.714Z,20.0
2017-03-11T08:44:45.805Z,20.0
2017-03-11T08:45:53.892Z,20.0
2017-03-11T08:47:01.974Z,20.0
2017-03-11T08:48:10.064Z,20.0
2017-03-11T08:49:18.153Z,20.1
2017-03-11T08:50:26.256Z,20.1
2017-03-11T08:51:34.319Z,20.1
2017-03-11T08:52:42.409Z,20.1
2017-03-11T08:53:50.503Z,20.1
2017-03-11T08:54:58.583Z,20.2
2017-03-11T08:56:06.729Z,20.2
2017-03-11T08:57:14.762Z,20.2
2017-03-11T08:58:23.543Z,20.2
2017-03-11T08:59:30.937Z,20.2
2017-03-11T09:00:39.029Z,20.1
2017-03-11T09:01:47.116Z,20.3
2017-03-11T09:02:55.200Z,20.3
2017-03-11T09:04:03.293Z,20.2
2017-03-11T09:05:11.378Z,20.3
2017-03-11T09:06:19.467Z,20.3
2017-03-11T09:07:27.562Z,20.3
2017-03-11T09:08:35.651Z,20.4
2017-03-11T09:09:43.746Z,20.4
2017-03-11T09:10:51.822Z,20.4
2017-03-11T09:11:59.911Z,20.4
2017-03-11T09:13:07.998Z,20.3
2017-03-11T09:14:16.083Z,20.4
2017-03-11T09:15:24.166Z,20.4
2017-03-11T09:16:32.312Z,20.4
2017-03-11T09:17:40.342Z,20.5
2017-03-11T09:18:48.429Z,20.4
2017-03-11T09:19:56.517Z,20.4
2017-03-11T09:21:04.605Z,20.5
2017-03-11T09:22:12.693Z,20.5
2017-03-11T09:23:20.776Z,20.5
2017-03-11T09:24:28.869Z,20.5
2017-03-11T09:25:36.956Z,20.5
2017-03-11T09:26:45.039Z,20.6
2017-03-11T09:27:53.126Z,20.5
2017-03-11T09:29:01.212Z,20.6
2017-03-11T09:30:09.293Z,20.6
2017-03-11T09:31:17.381Z,20.6
2017-03-11T09:32:25.472Z,20.6
2017-03-11T09:33:33.572Z,20.7
2017-03-11T09:34:41.639Z,20.7
2017-03-11T09:35:49.735Z,20.7
2017-03-11T09:36:57.820Z,20.8
2017-03-11T09:38:05.905Z,20.7
2017-03-11T09:39:13.993Z,20.7
2017-03-11T09:40:22.083Z,20.7
2017-03-11T09:41:30.175Z,20.7
2017-03-11T09:42:38.249Z,20.7
2017-03-11T09:43:46.346Z,20.8
2017-03-11T09:44:54.431Z,20.7
2017-03-11T09:46:02.522Z,20.8
2017-03-11T09:47:10.610Z,20.8
2017-03-11T09:48:18.698Z,20.8
2017-03-11T09:49:26.788Z,20.8
2017-03-11T09:50:34.873Z,20.8
2017-03-11T09:51:42.964Z,20.9
2017-03-11T09:52:51.050Z,20.9
2017-03-11T09:53:59.135Z,20.8
2017-03-11T09:55:07.223Z,20.9
2017-03-11T09:56:15.312Z,20.9
2017-03-11T09:57:23.393Z,20.9
2017-03-11T09:58:31.478Z,20.9
2017-03-11T09:59:39.569Z,20.9
2017-03-11T10:00:47.662Z,20.9
2017-03-11T10:01:55.752Z,20.9
2017-03-11T10:03:03.845Z,20.9
2017-03-11T10:04:11.930Z,20.9
2017-03-11T10:05:20.017Z,21.0
2017-03-11T10:06:28.099Z,20.9
2017-03-11T10:07:36.190Z,20.9
2017-03-11T10:08:44.276Z,21.0
2017-03-11T10:09:52.359Z,20.9
2017-03-11T10:11:00.451Z,21.0
2017-03-11T10:12:08.542Z,21.1
2017-03-11T10:13:16.636Z,21.0
2017-03-11T10:14:24.715Z,21.0
2017-03-11T10:15:32.890Z,21.1
2017-03-11T10:16:40.892Z,21.0
2017-03-11T10:17:48.979Z,21.0
2017-03-11T10:18:57.072Z,21.0
2017-03-11T10:20:05.158Z,21.0
2017-03-11T10:21:13.240Z,21.1
2017-03-11T10:22:21.326Z,21.0
2017-03-11T10:23:29.416Z,21.1
2017-03-11T10:24:37.500Z,21.0
2017-03-11T10:25:45.617Z,21.0
2017-03-11T10:26:53.679Z,20.9
2017-03-11T10:28:01.766Z,21.0
2017-03-11T10:29:09.882Z,21.1
2017-03-11T10:30:18.171Z,21.1
2017-03-11T10:31:26.036Z,20.9
2017-03-11T10:32:34.118Z,21.0
2017-03-11T10:33:42.204Z,21.0
2017-03-11T10:34:50.291Z,21.0
2017-03-11T10:35:58.463Z,20.9
2017-03-11T10:37:06.556Z,21.0
2017-03-11T10:38:14.641Z,20.9
2017-03-11T10:39:22.653Z,21.0
2017-03-11T10:40:31.230Z,20.9
2017-03-11T10:41:38.823Z,20.9
2017-03-11T10:42:46.910Z,20.9
2017-03-11T10:43:55.076Z,20.9
2017-03-11T10:45:03.171Z,21.0
2017-03-11T10:46:11.258Z,20.9
2017-03-11T10:47:19.342Z,20.9
2017-03-11T10:48:27.347Z,20.9
2017-03-11T10:49:35.433Z,20.9
2017-03-11T10:50:43.519Z,20.9
2017-03-11T10:51:51.614Z,20.9
2017-03-11T10:52:59.692Z,20.9
2017-03-11T10:54:07.787Z,20.9
2017-03-11T10:55:15.871Z,20.8
2017-03-11T10:56:23.958Z,20.9
2017-03-11T10:57:32.044Z,20.9
2017-03-11T10:58:40.252Z,20.9
2017-03-11T10:59:48.311Z,20.8
2017-03-11T11:00:56.386Z,20.9
2017-03-11T11:02:04.539Z,20.8
2017-03-11T11:03:12.574Z,20.9
2017-03-11T11:04:20.644Z,20.9
2017-03-11T11:05:28.730Z,20.9
2017-03-11T11:06:36.738Z,20.8
2017-03-11T11:07:45.164Z,20.8
2017-03-11T11:08:52.908Z,20.8
2017-03-11T11:10:00.994Z,20.8
2017-03-11T11:11:09.169Z,20.8
2017-03-11T11:12:17.257Z,20.9
2017-03-11T11:13:25.253Z,20.7
2017-03-11T11:14:33.348Z,20.8
2017-03-11T11:15:41.440Z,20.8
2017-03-11T11:16:49.525Z,20.7
2017-03-11T11:17:57.617Z,20.8
2017-03-11T11:19:05.739Z,20.7
2017-03-11T11:20:13.794Z,20.7
2017-03-11T11:21:21.876Z,20.8
2017-03-11T11:22:29.968Z,20.8
2017-03-11T11:23:38.057Z,20.8
2017-03-11T11:24:46.140Z,20.8
2017-03-11T11:25:54.231Z,20.8
2017-03-11T11:27:02.315Z,20.8
2017-03-11T11:28:10.402Z,20.8
2017-03-11T11:29:18.489Z,20.8
2017-03-11T11:30:26.669Z,20.8
2017-03-11T11:31:34.757Z,20.9
2017-03-11T11:32:42.849Z,20.9
2017-03-11T11:33:50.930Z,20.8
2017-03-11T11:34:59.020Z,20.9
2017-03-11T11:36:07.098Z,20.8
2017-03-11T11:37:15.115Z,20.8
2017-03-11T11:38:23.211Z,20.8
2017-03-11T11:39:31.393Z,20.7
2017-03-11T11:40:39.463Z,20.8
2017-03-11T11:41:47.478Z,20.7
2017-03-11T11:42:55.565Z,20.8
2017-03-11T11:44:03.650Z,20.8
2017-03-11T11:45:11.738Z,20.8
2017-03-11T11:46:19.828Z,20.8
2017-03-11T11:47:27.923Z,20.7
2017-03-11T11:48:36.000Z,20.8
2017-03-11T11:49:44.089Z,20.7
2017-03-11T11:50:52.184Z,20.8
2017-03-11T11:52:00.278Z,20.7
2017-03-11T11:53:08.366Z,20.7
2017-03-11T11:54:16.476Z,20.7
2017-03-11T11:55:24.535Z,20.7
2017-03-11T11:56:32.632Z,20.7
2017-03-11T11:57:40.712Z,20.7
2017-03-11T11:58:48.797Z,20.6
2017-03-11T11:59:56.880Z,20.7
2017-03-11T12:01:04.970Z,20.7
2017-03-11T12:02:13.055Z,20.7
2017-03-11T12:03:21.142Z,20.7
2017-03-11T12:04:29.227Z,20.7
2017-03-11T12:05:37.317Z,20.7
2017-03-11T12:06:45.403Z,20.7
2017-03-11T12:07:53.502Z,20.7
2017-03-11T12:09:01.602Z,20.7
2017-03-11T12:10:09.673Z,20.6
2017-03-11T12:11:17.835Z,20.6
2017-03-11T12:12:25.845Z,20.6
2017-03-11T12:13:34.021Z,20.6
2017-03-11T12:14:42.031Z,20.6
2017-03-11T12:15:50.127Z,20.6
2017-03-11T12:16:58.261Z,20.6
2017-03-11T12:18:06.346Z,20.6
2017-03-11T12:19:14.382Z,20.6
2017-03-11T12:20:22.506Z,20.5
2017-03-11T12:21:30.613Z,20.5
2017-03-11T12:22:38.641Z,20.5
2017-03-11T12:23:46.763Z,20.6
2017-03-11T12:24:54.819Z,20.5
2017-03-11T12:26:02.902Z,20.6
2017-03-11T12:27:10.987Z,20.5
2017-03-11T12:28:19.068Z,20.6
2017-03-11T12:29:27.161Z,20.5
2017-03-11T12:30:35.245Z,20.5
2017-03-11T12:31:43.343Z,20.5
2017-03-11T12:32:51.415Z,20.5
2017-03-11T12:33:59.538Z,20.5
2017-03-11T12:35:07.637Z,20.4
2017-03-11T12:36:15.677Z,20.5
2017-03-11T12:37:23.819Z,20.5
2017-03-11T12:38:31.884Z,20.4
2017-03-11T12:39:39.951Z,20.4
2017-03-11T12:40:48.036Z,20.4
2017-03-11T12:41:56.148Z,20.4
2017-03-11T12:43:04.211Z,20.3
2017-03-11T12:44:12.299Z,20.5
2017-03-11T12:45:20.430Z,20.5
2017-03-11T12:46:28.492Z,20.5
2017-03-11T12:47:36.563Z,20.5
2017-03-11T12:48:44.656Z,20.5
2017-03-11T12:49:52.809Z,20.6
2017-03-11T12:51:00.833Z,20.4
2017-03-11T12:52:08.965Z,20.5
2017-03-11T12:53:17.012Z,20.5
2017-03-11T12:54:25.116Z,20.5
2017-03-11T12:55:33.186Z,20.5
2017-03-11T12:56:41.308Z,20.5
2017-03-11T12:57:49.361Z,20.5
2017-03-11T12:58:57.451Z,20.5
2017-03-11T13:00:05.568Z,20.4
2017-03-11T13:01:13.620Z,20.3
2017-03-11T13:02:21.708Z,20.4
2017-03-11T13:03:29.788Z,20.3
2017-03-11T13:04:37.879Z,20.4
2017-03-11T13:05:45.995Z,20.3
2017-03-11T13:06:54.078Z,20.4
2017-03-11T13:08:02.143Z,20.3
2017-03-11T13:09:10.238Z,20.3
2017-03-11T13:10:18.314Z,20.3
2017-03-11T13:11:26.431Z,20.3
2017-03-11T13:12:34.490Z,20.3
2017-03-11T13:13:42.584Z,20.3
2017-03-11T13:14:50.670Z,20.3
2017-03-11T13:15:58.754Z,20.3
2017-03-11T13:17:06.847Z,20.3
2017-03-11T13:18:14.937Z,20.3
2017-03-11T13:19:23.051Z,20.3
2017-03-11T13:20:31.153Z,20.2
2017-03-11T13:21:39.226Z,20.3
2017-03-11T13:22:47.292Z,20.1
2017-03-11T13:23:55.370Z,20.3
2017-03-11T13:25:03.477Z,20.3
2017-03-11T13:26:11.566Z,20.1
2017-03-11T13:27:19.752Z,20.2
2017-03-11T13:28:27.870Z,20.2
2017-03-11T13:29:35.913Z,20.2
2017-03-11T13:30:44.019Z,20.2
2017-03-11T13:31:51.977Z,20.2
2017-03-11T13:33:00.096Z,20.1
2017-03-11T13:34:08.158Z,20.2
2017-03-11T13:35:16.283Z,20.2
2017-03-11T13:36:24.333Z,20.1
2017-03-11T13:37:32.420Z,20.2
2017-03-11T13:38:40.513Z,20.2
2017-03-11T13:39:48.613Z,20.2
2017-03-11T13:40:56.681Z,20.2
2017-03-11T13:42:04.762Z,20.1
2017-03-11T13:43:12.876Z,20.2
2017-03-11T13:44:20.990Z,20.2
2017-03-11T13:45:29.024Z,20.2
2017-03-11T13:46:37.112Z,20.1
2017-03-11T13:47:45.218Z,20.2
2017-03-11T13:48:53.296Z,20.2
2017-03-11T13:50:01.374Z,20.1
2017-03-11T13:51:09.463Z,20.1
2017-03-11T13:52:17.553Z,20.1
2017-03-11T13:53:25.641Z,20.1
2017-03-11T13:54:33.723Z,20.1
2017-03-11T13:55:41.812Z,20.1
2017-03-11T13:56:49.901Z,20.0
2017-03-11T13:57:57.984Z,20.2
2017-03-11T13:59:06.067Z,20.0
2017-03-11T14:00:14.166Z,20.1
2017-03-11T14:01:22.252Z,20.1
2017-03-11T14:02:30.341Z,20.1
2017-03-11T14:03:38.428Z,20.1
2017-03-11T14:04:46.579Z,20.1
2017-03-11T14:05:54.610Z,20.1
2017-03-11T14:07:02.703Z,20.0
2017-03-11T14:08:10.790Z,20.1
2017-03-11T14:09:18.868Z,20.1
2017-03-11T14:10:26.955Z,20.1
2017-03-11T14:11:35.070Z,20.1
2017-03-11T14:12:43.133Z,20.1
2017-03-11T14:13:51.217Z,20.0
2017-03-11T14:14:59.304Z,20.0
2017-03-11T14:16:07.397Z,20.1
2017-03-11T14:17:15.483Z,20.1
2017-03-11T14:18:23.560Z,20.0
2017-03-11T14:19:31.652Z,20.1
2017-03-11T14:20:39.737Z,20.0
2017-03-11T14:21:47.836Z,20.0
2017-03-11T14:22:55.908Z,20.0
2017-03-11T14:24:03.996Z,20.1
2017-03-11T14:25:12.081Z,20.0
2017-03-11T14:26:20.166Z,20.1
2017-03-11T14:27:28.263Z,20.0
2017-03-11T14:28:36.351Z,20.1
2017-03-11T14:29:44.434Z,20.1
2017-03-11T14:30:52.525Z,20.0
2017-03-11T14:32:00.613Z,20.1
2017-03-11T14:33:08.702Z,20.1
2017-03-11T14:34:16.790Z,19.9
2017-03-11T14:35:24.876Z,20.0
2017-03-11T14:36:32.965Z,19.9
2017-03-11T14:37:41.046Z,20.0
2017-03-11T14:38:49.165Z,20.0
2017-03-11T14:39:57.222Z,20.0
2017-03-11T14:41:05.315Z,20.0
2017-03-11T14:42:13.724Z,20.0
2017-03-11T14:43:21.480Z,20.0
2017-03-11T14:44:29.562Z,20.0
2017-03-11T14:45:37.649Z,19.9
2017-03-11T14:46:45.735Z,20.0
2017-03-11T14:47:53.820Z,20.0
2017-03-11T14:49:01.909Z,20.0
2017-03-11T14:50:09.991Z,20.0
2017-03-11T14:51:18.086Z,19.9
2017-03-11T14:52:26.171Z,19.9
2017-03-11T14:53:34.258Z,19.9
2017-03-11T14:54:42.351Z,19.9
2017-03-11T14:55:50.442Z,19.9
2017-03-11T14:56:58.522Z,19.9
2017-03-11T14:58:06.607Z,19.9
2017-03-11T14:59:14.704Z,19.9
2017-03-11T15:00:22.795Z,19.9
2017-03-11T15:01:30.879Z,19.9
2017-03-11T15:02:38.966Z,19.9
2017-03-11T15:03:47.057Z,19.8
2017-03-11T15:04:55.141Z,19.9
2017-03-11T15:06:03.226Z,19.9
2017-03-11T15:07:11.317Z,19.9
2017-03-11T15:08:19.399Z,19.9
2017-03-11T15:09:27.485Z,19.8
2017-03-11T15:10:35.576Z,19.8